sensor_id;sensor_type;location;lat;lon;timestamp;P1;durP1;ratioP1;P2;durP2;ratioP2
43580;SDS011;29175;51.030;4.606;2023-12-22T00:02:02;14.15;;;3.25;;
43580;SDS011;29175;51.030;4.606;2023-12-22T00:04:29;17.42;;;4.13;;
43580;SDS011;29175;51.030;4.606;2023-12-22T00:06:55;16.80;;;3.65;;
43580;SDS011;29175;51.030;4.606;2023-12-22T00:09:22;21.95;;;4.18;;
43580;SDS011;29175;51.030;4.606;2023-12-22T00:11:49;22.70;;;4.10;;
43580;SDS011;29175;51.030;4.606;2023-12-22T00:14:16;17.48;;;4.00;;
43580;SDS011;29175;51.030;4.606;2023-12-22T00:16:42;15.48;;;3.88;;
43580;SDS011;29175;51.030;4.606;2023-12-22T00:19:08;18.30;;;3.95;;
43580;SDS011;29175;51.030;4.606;2023-12-22T00:21:34;20.67;;;3.85;;
43580;SDS011;29175;51.030;4.606;2023-12-22T00:24:00;25.65;;;4.38;;
43580;SDS011;29175;51.030;4.606;2023-12-22T00:26:27;26.17;;;4.07;;
43580;SDS011;29175;51.030;4.606;2023-12-22T00:28:54;17.30;;;3.63;;
43580;SDS011;29175;51.030;4.606;2023-12-22T00:31:20;16.48;;;3.15;;
43580;SDS011;29175;51.030;4.606;2023-12-22T00:33:46;23.13;;;4.22;;
43580;SDS011;29175;51.030;4.606;2023-12-22T00:36:14;16.65;;;3.88;;
43580;SDS011;29175;51.030;4.606;2023-12-22T00:38:41;14.30;;;3.35;;
43580;SDS011;29175;51.030;4.606;2023-12-22T00:41:10;18.25;;;3.33;;
43580;SDS011;29175;51.030;4.606;2023-12-22T00:43:37;21.50;;;3.50;;
43580;SDS011;29175;51.030;4.606;2023-12-22T00:46:04;20.60;;;3.50;;
43580;SDS011;29175;51.030;4.606;2023-12-22T00:48:29;16.65;;;2.92;;
43580;SDS011;29175;51.030;4.606;2023-12-22T00:50:56;15.45;;;3.03;;
43580;SDS011;29175;51.030;4.606;2023-12-22T00:53:22;10.25;;;2.95;;
43580;SDS011;29175;51.030;4.606;2023-12-22T00:55:48;20.67;;;4.00;;
43580;SDS011;29175;51.030;4.606;2023-12-22T00:58:13;15.98;;;3.70;;
43580;SDS011;29175;51.030;4.606;2023-12-22T01:00:39;12.80;;;3.63;;
43580;SDS011;29175;51.030;4.606;2023-12-22T01:03:05;18.98;;;3.30;;
43580;SDS011;29175;51.030;4.606;2023-12-22T01:05:32;22.05;;;4.38;;
43580;SDS011;29175;51.030;4.606;2023-12-22T01:07:57;19.17;;;3.42;;
43580;SDS011;29175;51.030;4.606;2023-12-22T01:10:24;22.42;;;3.67;;
43580;SDS011;29175;51.030;4.606;2023-12-22T01:12:52;24.17;;;4.05;;
43580;SDS011;29175;51.030;4.606;2023-12-22T01:15:18;25.95;;;4.07;;
43580;SDS011;29175;51.030;4.606;2023-12-22T01:17:43;28.10;;;4.60;;
43580;SDS011;29175;51.030;4.606;2023-12-22T01:20:09;25.58;;;4.03;;
43580;SDS011;29175;51.030;4.606;2023-12-22T01:22:35;18.98;;;4.32;;
43580;SDS011;29175;51.030;4.606;2023-12-22T01:25:04;24.27;;;4.32;;
43580;SDS011;29175;51.030;4.606;2023-12-22T01:27:31;26.13;;;5.55;;
43580;SDS011;29175;51.030;4.606;2023-12-22T01:29:56;31.25;;;5.45;;
43580;SDS011;29175;51.030;4.606;2023-12-22T01:32:22;27.67;;;5.32;;
43580;SDS011;29175;51.030;4.606;2023-12-22T01:34:50;34.97;;;5.60;;
43580;SDS011;29175;51.030;4.606;2023-12-22T01:37:16;31.35;;;4.45;;
43580;SDS011;29175;51.030;4.606;2023-12-22T01:39:42;23.73;;;4.53;;
43580;SDS011;29175;51.030;4.606;2023-12-22T01:42:08;30.35;;;5.85;;
43580;SDS011;29175;51.030;4.606;2023-12-22T01:44:34;23.25;;;4.82;;
43580;SDS011;29175;51.030;4.606;2023-12-22T01:47:01;24.35;;;3.83;;
43580;SDS011;29175;51.030;4.606;2023-12-22T01:49:27;30.63;;;4.35;;
43580;SDS011;29175;51.030;4.606;2023-12-22T01:51:54;24.98;;;5.50;;
43580;SDS011;29175;51.030;4.606;2023-12-22T01:54:20;22.60;;;3.88;;
43580;SDS011;29175;51.030;4.606;2023-12-22T01:56:46;28.42;;;5.07;;
43580;SDS011;29175;51.030;4.606;2023-12-22T01:59:13;20.77;;;3.97;;
43580;SDS011;29175;51.030;4.606;2023-12-22T02:01:39;24.90;;;4.75;;
43580;SDS011;29175;51.030;4.606;2023-12-22T02:04:06;27.40;;;4.80;;
43580;SDS011;29175;51.030;4.606;2023-12-22T02:06:32;24.98;;;3.90;;
43580;SDS011;29175;51.030;4.606;2023-12-22T02:09:01;22.13;;;4.60;;
43580;SDS011;29175;51.030;4.606;2023-12-22T02:11:30;23.98;;;4.85;;
43580;SDS011;29175;51.030;4.606;2023-12-22T02:13:55;30.13;;;4.47;;
43580;SDS011;29175;51.030;4.606;2023-12-22T02:16:31;24.15;;;4.53;;
43580;SDS011;29175;51.030;4.606;2023-12-22T02:19:14;33.47;;;4.65;;
43580;SDS011;29175;51.030;4.606;2023-12-22T02:22:02;33.65;;;5.68;;
43580;SDS011;29175;51.030;4.606;2023-12-22T02:24:33;21.05;;;4.00;;
43580;SDS011;29175;51.030;4.606;2023-12-22T02:29:57;17.42;;;3.40;;
43580;SDS011;29175;51.030;4.606;2023-12-22T02:32:27;32.05;;;4.28;;
43580;SDS011;29175;51.030;4.606;2023-12-22T02:34:59;24.30;;;3.65;;
43580;SDS011;29175;51.030;4.606;2023-12-22T02:37:30;21.52;;;4.63;;
43580;SDS011;29175;51.030;4.606;2023-12-22T02:39:57;27.67;;;3.55;;
43580;SDS011;29175;51.030;4.606;2023-12-22T02:42:24;20.98;;;3.95;;
43580;SDS011;29175;51.030;4.606;2023-12-22T02:44:56;13.73;;;3.10;;
43580;SDS011;29175;51.030;4.606;2023-12-22T02:47:25;20.50;;;3.58;;
43580;SDS011;29175;51.030;4.606;2023-12-22T02:49:54;19.33;;;3.55;;
43580;SDS011;29175;51.030;4.606;2023-12-22T02:52:23;23.23;;;3.83;;
43580;SDS011;29175;51.030;4.606;2023-12-22T02:54:50;12.77;;;3.90;;
43580;SDS011;29175;51.030;4.606;2023-12-22T02:57:16;10.07;;;2.88;;
43580;SDS011;29175;51.030;4.606;2023-12-22T02:59:42;13.55;;;3.25;;
43580;SDS011;29175;51.030;4.606;2023-12-22T03:02:07;12.43;;;2.65;;
43580;SDS011;29175;51.030;4.606;2023-12-22T03:04:34;19.70;;;2.95;;
43580;SDS011;29175;51.030;4.606;2023-12-22T03:07:00;15.65;;;3.17;;
43580;SDS011;29175;51.030;4.606;2023-12-22T03:09:26;16.13;;;3.15;;
43580;SDS011;29175;51.030;4.606;2023-12-22T03:11:52;15.88;;;2.95;;
43580;SDS011;29175;51.030;4.606;2023-12-22T03:14:19;14.52;;;2.90;;
43580;SDS011;29175;51.030;4.606;2023-12-22T03:16:45;10.88;;;2.72;;
43580;SDS011;29175;51.030;4.606;2023-12-22T03:19:11;14.27;;;3.58;;
43580;SDS011;29175;51.030;4.606;2023-12-22T03:21:37;15.13;;;2.90;;
43580;SDS011;29175;51.030;4.606;2023-12-22T03:24:02;16.83;;;3.20;;
43580;SDS011;29175;51.030;4.606;2023-12-22T03:26:29;20.25;;;3.83;;
43580;SDS011;29175;51.030;4.606;2023-12-22T03:28:55;13.90;;;2.97;;
43580;SDS011;29175;51.030;4.606;2023-12-22T03:31:21;22.58;;;4.25;;
43580;SDS011;29175;51.030;4.606;2023-12-22T03:33:46;16.33;;;3.15;;
43580;SDS011;29175;51.030;4.606;2023-12-22T03:36:13;15.40;;;3.58;;
43580;SDS011;29175;51.030;4.606;2023-12-22T03:38:39;16.40;;;3.35;;
43580;SDS011;29175;51.030;4.606;2023-12-22T03:41:05;18.77;;;4.13;;
43580;SDS011;29175;51.030;4.606;2023-12-22T03:43:30;16.92;;;3.67;;
43580;SDS011;29175;51.030;4.606;2023-12-22T03:45:57;24.30;;;4.32;;
43580;SDS011;29175;51.030;4.606;2023-12-22T03:48:24;27.35;;;4.75;;
43580;SDS011;29175;51.030;4.606;2023-12-22T03:50:49;30.60;;;4.30;;
43580;SDS011;29175;51.030;4.606;2023-12-22T03:53:16;27.85;;;3.92;;
43580;SDS011;29175;51.030;4.606;2023-12-22T03:55:42;24.77;;;4.10;;
43580;SDS011;29175;51.030;4.606;2023-12-22T03:58:08;26.02;;;5.20;;
43580;SDS011;29175;51.030;4.606;2023-12-22T04:00:35;37.55;;;5.18;;
43580;SDS011;29175;51.030;4.606;2023-12-22T04:03:00;28.90;;;5.47;;
43580;SDS011;29175;51.030;4.606;2023-12-22T04:05:27;31.98;;;5.05;;
43580;SDS011;29175;51.030;4.606;2023-12-22T04:07:53;30.70;;;5.10;;
43580;SDS011;29175;51.030;4.606;2023-12-22T04:10:19;25.27;;;4.05;;
43580;SDS011;29175;51.030;4.606;2023-12-22T04:12:45;21.45;;;4.55;;
43580;SDS011;29175;51.030;4.606;2023-12-22T04:15:11;23.67;;;4.40;;
43580;SDS011;29175;51.030;4.606;2023-12-22T04:17:38;31.65;;;4.88;;
43580;SDS011;29175;51.030;4.606;2023-12-22T04:20:05;29.40;;;4.70;;
43580;SDS011;29175;51.030;4.606;2023-12-22T04:22:32;31.33;;;5.18;;
43580;SDS011;29175;51.030;4.606;2023-12-22T04:24:59;24.52;;;3.85;;
43580;SDS011;29175;51.030;4.606;2023-12-22T04:27:25;25.75;;;4.75;;
43580;SDS011;29175;51.030;4.606;2023-12-22T04:29:52;25.02;;;4.57;;
43580;SDS011;29175;51.030;4.606;2023-12-22T04:32:19;21.70;;;5.30;;
43580;SDS011;29175;51.030;4.606;2023-12-22T04:34:44;20.13;;;4.28;;
43580;SDS011;29175;51.030;4.606;2023-12-22T04:37:10;18.27;;;4.65;;
43580;SDS011;29175;51.030;4.606;2023-12-22T04:39:38;40.92;;;4.68;;
43580;SDS011;29175;51.030;4.606;2023-12-22T04:42:04;28.95;;;5.13;;
43580;SDS011;29175;51.030;4.606;2023-12-22T04:44:29;28.88;;;4.50;;
43580;SDS011;29175;51.030;4.606;2023-12-22T04:46:55;33.65;;;5.70;;
43580;SDS011;29175;51.030;4.606;2023-12-22T04:49:21;30.17;;;5.50;;
43580;SDS011;29175;51.030;4.606;2023-12-22T04:51:46;45.97;;;5.82;;
43580;SDS011;29175;51.030;4.606;2023-12-22T04:54:12;29.15;;;5.68;;
43580;SDS011;29175;51.030;4.606;2023-12-22T04:56:38;23.40;;;5.07;;
43580;SDS011;29175;51.030;4.606;2023-12-22T04:59:04;36.05;;;5.55;;
43580;SDS011;29175;51.030;4.606;2023-12-22T05:01:29;31.70;;;6.13;;
43580;SDS011;29175;51.030;4.606;2023-12-22T05:03:55;35.38;;;5.95;;
43580;SDS011;29175;51.030;4.606;2023-12-22T05:06:21;47.97;;;7.20;;
43580;SDS011;29175;51.030;4.606;2023-12-22T05:08:46;36.22;;;5.68;;
43580;SDS011;29175;51.030;4.606;2023-12-22T05:11:12;29.27;;;7.03;;
43580;SDS011;29175;51.030;4.606;2023-12-22T05:13:39;28.60;;;5.53;;
43580;SDS011;29175;51.030;4.606;2023-12-22T05:16:09;44.78;;;7.18;;
43580;SDS011;29175;51.030;4.606;2023-12-22T05:18:34;34.35;;;5.60;;
43580;SDS011;29175;51.030;4.606;2023-12-22T05:21:00;35.83;;;5.97;;
43580;SDS011;29175;51.030;4.606;2023-12-22T05:23:27;33.53;;;5.68;;
43580;SDS011;29175;51.030;4.606;2023-12-22T05:25:53;27.95;;;6.18;;
43580;SDS011;29175;51.030;4.606;2023-12-22T05:28:18;30.15;;;5.85;;
43580;SDS011;29175;51.030;4.606;2023-12-22T05:30:44;31.27;;;6.65;;
43580;SDS011;29175;51.030;4.606;2023-12-22T05:33:10;39.20;;;6.57;;
43580;SDS011;29175;51.030;4.606;2023-12-22T05:35:36;30.13;;;5.82;;
43580;SDS011;29175;51.030;4.606;2023-12-22T05:38:01;31.85;;;6.15;;
43580;SDS011;29175;51.030;4.606;2023-12-22T05:40:27;38.05;;;6.20;;
43580;SDS011;29175;51.030;4.606;2023-12-22T05:42:53;26.25;;;5.68;;
43580;SDS011;29175;51.030;4.606;2023-12-22T05:45:19;33.42;;;5.90;;
43580;SDS011;29175;51.030;4.606;2023-12-22T05:47:44;46.35;;;5.40;;
43580;SDS011;29175;51.030;4.606;2023-12-22T05:50:10;33.92;;;6.97;;
43580;SDS011;29175;51.030;4.606;2023-12-22T05:52:37;31.13;;;5.57;;
43580;SDS011;29175;51.030;4.606;2023-12-22T05:55:02;41.72;;;5.85;;
43580;SDS011;29175;51.030;4.606;2023-12-22T05:57:29;43.58;;;6.18;;
43580;SDS011;29175;51.030;4.606;2023-12-22T05:59:54;40.70;;;7.35;;
43580;SDS011;29175;51.030;4.606;2023-12-22T06:02:20;29.45;;;5.45;;
43580;SDS011;29175;51.030;4.606;2023-12-22T06:04:46;44.92;;;5.80;;
43580;SDS011;29175;51.030;4.606;2023-12-22T06:07:11;38.88;;;6.70;;
43580;SDS011;29175;51.030;4.606;2023-12-22T06:09:37;39.60;;;6.22;;
43580;SDS011;29175;51.030;4.606;2023-12-22T06:12:04;38.15;;;5.82;;
43580;SDS011;29175;51.030;4.606;2023-12-22T06:14:31;39.80;;;6.68;;
43580;SDS011;29175;51.030;4.606;2023-12-22T06:16:57;35.90;;;5.50;;
43580;SDS011;29175;51.030;4.606;2023-12-22T06:19:23;43.45;;;6.38;;
